sensor_id;sensor_type;location;lat;lon;timestamp;P1;durP1;ratioP1;P2;durP2;ratioP2
29774;SDS011;16676;51.202;6.774;2023-12-20T00:01:44;1.83;;;1.02;;
29774;SDS011;16676;51.202;6.774;2023-12-20T00:05:46;1.00;;;0.80;;
29774;SDS011;16676;51.202;6.774;2023-12-20T00:09:49;1.83;;;1.00;;
29774;SDS011;16676;51.202;6.774;2023-12-20T00:13:50;1.55;;;0.88;;
29774;SDS011;16676;51.202;6.774;2023-12-20T00:17:54;1.38;;;0.75;;
29774;SDS011;16676;51.202;6.774;2023-12-20T00:21:56;1.52;;;1.02;;
29774;SDS011;16676;51.202;6.774;2023-12-20T00:25:59;1.58;;;1.02;;
29774;SDS011;16676;51.202;6.774;2023-12-20T00:30:02;1.83;;;0.95;;
29774;SDS011;16676;51.202;6.774;2023-12-20T00:34:05;1.67;;;1.00;;
29774;SDS011;16676;51.202;6.774;2023-12-20T00:38:07;1.10;;;0.75;;
29774;SDS011;16676;51.202;6.774;2023-12-20T00:42:10;1.75;;;0.80;;
29774;SDS011;16676;51.202;6.774;2023-12-20T00:46:12;1.83;;;1.10;;
29774;SDS011;16676;51.202;6.774;2023-12-20T00:50:15;1.52;;;0.70;;
29774;SDS011;16676;51.202;6.774;2023-12-20T00:54:17;2.08;;;0.90;;
29774;SDS011;16676;51.202;6.774;2023-12-20T00:58:19;1.30;;;0.73;;
29774;SDS011;16676;51.202;6.774;2023-12-20T01:02:21;1.35;;;0.70;;
29774;SDS011;16676;51.202;6.774;2023-12-20T01:06:24;1.65;;;0.90;;
29774;SDS011;16676;51.202;6.774;2023-12-20T01:10:26;1.55;;;0.77;;
29774;SDS011;16676;51.202;6.774;2023-12-20T01:14:29;1.00;;;0.80;;
29774;SDS011;16676;51.202;6.774;2023-12-20T01:18:31;2.25;;;0.90;;
29774;SDS011;16676;51.202;6.774;2023-12-20T01:22:34;1.10;;;0.80;;
29774;SDS011;16676;51.202;6.774;2023-12-20T01:26:36;1.17;;;0.82;;
29774;SDS011;16676;51.202;6.774;2023-12-20T01:30:38;0.85;;;0.47;;
29774;SDS011;16676;51.202;6.774;2023-12-20T01:34:40;1.10;;;0.70;;
29774;SDS011;16676;51.202;6.774;2023-12-20T01:38:43;1.23;;;0.82;;
29774;SDS011;16676;51.202;6.774;2023-12-20T01:42:45;1.02;;;0.68;;
29774;SDS011;16676;51.202;6.774;2023-12-20T01:46:47;1.48;;;0.80;;
29774;SDS011;16676;51.202;6.774;2023-12-20T01:50:49;1.23;;;0.70;;
29774;SDS011;16676;51.202;6.774;2023-12-20T01:54:53;1.00;;;0.70;;
29774;SDS011;16676;51.202;6.774;2023-12-20T01:59:01;2.53;;;0.80;;
29774;SDS011;16676;51.202;6.774;2023-12-20T02:03:04;1.20;;;0.75;;
29774;SDS011;16676;51.202;6.774;2023-12-20T02:07:06;1.30;;;0.70;;
29774;SDS011;16676;51.202;6.774;2023-12-20T02:11:11;1.23;;;0.80;;
29774;SDS011;16676;51.202;6.774;2023-12-20T02:15:13;0.80;;;0.70;;
29774;SDS011;16676;51.202;6.774;2023-12-20T02:19:15;1.23;;;0.60;;
29774;SDS011;16676;51.202;6.774;2023-12-20T02:23:22;0.75;;;0.60;;
29774;SDS011;16676;51.202;6.774;2023-12-20T02:27:24;1.60;;;0.68;;
29774;SDS011;16676;51.202;6.774;2023-12-20T02:31:26;0.88;;;0.70;;
29774;SDS011;16676;51.202;6.774;2023-12-20T02:35:28;0.55;;;0.50;;
29774;SDS011;16676;51.202;6.774;2023-12-20T02:39:31;1.35;;;0.90;;
29774;SDS011;16676;51.202;6.774;2023-12-20T02:43:34;2.50;;;0.80;;
29774;SDS011;16676;51.202;6.774;2023-12-20T02:47:36;0.65;;;0.60;;
29774;SDS011;16676;51.202;6.774;2023-12-20T02:51:37;1.85;;;0.80;;
29774;SDS011;16676;51.202;6.774;2023-12-20T02:55:41;1.48;;;0.80;;
29774;SDS011;16676;51.202;6.774;2023-12-20T02:59:43;0.68;;;0.52;;
29774;SDS011;16676;51.202;6.774;2023-12-20T03:03:45;1.95;;;0.80;;
29774;SDS011;16676;51.202;6.774;2023-12-20T03:07:46;1.35;;;0.80;;
29774;SDS011;16676;51.202;6.774;2023-12-20T03:11:50;1.42;;;0.60;;
29774;SDS011;16676;51.202;6.774;2023-12-20T03:15:52;1.38;;;0.63;;
29774;SDS011;16676;51.202;6.774;2023-12-20T03:19:53;1.02;;;0.60;;
29774;SDS011;16676;51.202;6.774;2023-12-20T03:23:56;0.95;;;0.50;;
29774;SDS011;16676;51.202;6.774;2023-12-20T03:27:59;1.48;;;0.80;;
29774;SDS011;16676;51.202;6.774;2023-12-20T03:32:01;2.15;;;0.90;;
29774;SDS011;16676;51.202;6.774;2023-12-20T03:36:03;1.30;;;0.80;;
29774;SDS011;16676;51.202;6.774;2023-12-20T03:40:05;1.13;;;0.63;;
29774;SDS011;16676;51.202;6.774;2023-12-20T03:44:09;1.23;;;0.50;;
29774;SDS011;16676;51.202;6.774;2023-12-20T03:48:11;1.33;;;0.70;;
29774;SDS011;16676;51.202;6.774;2023-12-20T03:52:14;0.82;;;0.50;;
29774;SDS011;16676;51.202;6.774;2023-12-20T03:56:16;0.82;;;0.52;;
29774;SDS011;16676;51.202;6.774;2023-12-20T04:00:19;1.15;;;0.68;;
29774;SDS011;16676;51.202;6.774;2023-12-20T04:04:21;1.35;;;0.60;;
29774;SDS011;16676;51.202;6.774;2023-12-20T04:08:23;1.10;;;0.70;;
29774;SDS011;16676;51.202;6.774;2023-12-20T04:12:25;0.85;;;0.60;;
29774;SDS011;16676;51.202;6.774;2023-12-20T04:16:28;0.93;;;0.63;;
29774;SDS011;16676;51.202;6.774;2023-12-20T04:20:30;1.45;;;0.63;;
29774;SDS011;16676;51.202;6.774;2023-12-20T04:24:32;2.15;;;0.80;;
29774;SDS011;16676;51.202;6.774;2023-12-20T04:28:34;1.05;;;0.55;;
29774;SDS011;16676;51.202;6.774;2023-12-20T04:32:37;2.20;;;0.55;;
29774;SDS011;16676;51.202;6.774;2023-12-20T04:36:39;1.52;;;0.70;;
29774;SDS011;16676;51.202;6.774;2023-12-20T04:40:41;1.35;;;0.60;;
29774;SDS011;16676;51.202;6.774;2023-12-20T04:44:43;0.70;;;0.60;;
29774;SDS011;16676;51.202;6.774;2023-12-20T04:48:46;1.40;;;0.80;;
29774;SDS011;16676;51.202;6.774;2023-12-20T04:52:48;0.77;;;0.65;;
29774;SDS011;16676;51.202;6.774;2023-12-20T04:56:50;0.90;;;0.70;;
29774;SDS011;16676;51.202;6.774;2023-12-20T05:00:52;1.15;;;0.70;;
29774;SDS011;16676;51.202;6.774;2023-12-20T05:04:55;2.42;;;0.77;;
29774;SDS011;16676;51.202;6.774;2023-12-20T05:08:57;1.40;;;0.60;;
29774;SDS011;16676;51.202;6.774;2023-12-20T05:12:59;2.65;;;0.77;;
29774;SDS011;16676;51.202;6.774;2023-12-20T05:17:01;2.60;;;0.70;;
29774;SDS011;16676;51.202;6.774;2023-12-20T05:21:05;1.90;;;0.77;;
29774;SDS011;16676;51.202;6.774;2023-12-20T05:25:07;0.88;;;0.40;;
29774;SDS011;16676;51.202;6.774;2023-12-20T05:29:09;1.17;;;0.70;;
29774;SDS011;16676;51.202;6.774;2023-12-20T05:33:10;0.93;;;0.60;;
29774;SDS011;16676;51.202;6.774;2023-12-20T05:37:14;5.47;;;1.05;;
29774;SDS011;16676;51.202;6.774;2023-12-20T05:41:16;8.15;;;1.70;;
29774;SDS011;16676;51.202;6.774;2023-12-20T05:45:17;13.98;;;3.00;;
29774;SDS011;16676;51.202;6.774;2023-12-20T05:49:19;23.35;;;4.07;;
29774;SDS011;16676;51.202;6.774;2023-12-20T05:53:23;12.02;;;2.97;;
29774;SDS011;16676;51.202;6.774;2023-12-20T05:57:25;15.77;;;2.97;;
29774;SDS011;16676;51.202;6.774;2023-12-20T06:01:27;9.65;;;2.00;;
29774;SDS011;16676;51.202;6.774;2023-12-20T06:05:29;14.32;;;2.65;;
29774;SDS011;16676;51.202;6.774;2023-12-20T06:09:32;10.57;;;2.13;;
29774;SDS011;16676;51.202;6.774;2023-12-20T06:13:34;9.40;;;2.15;;
29774;SDS011;16676;51.202;6.774;2023-12-20T06:17:36;8.10;;;1.92;;
29774;SDS011;16676;51.202;6.774;2023-12-20T06:21:38;5.20;;;1.65;;
29774;SDS011;16676;51.202;6.774;2023-12-20T06:25:43;6.60;;;1.70;;
29774;SDS011;16676;51.202;6.774;2023-12-20T06:29:45;5.68;;;1.45;;
29774;SDS011;16676;51.202;6.774;2023-12-20T06:33:47;8.63;;;2.03;;
29774;SDS011;16676;51.202;6.774;2023-12-20T06:37:50;8.57;;;1.65;;
29774;SDS011;16676;51.202;6.774;2023-12-20T06:41:54;9.23;;;1.75;;
29774;SDS011;16676;51.202;6.774;2023-12-20T06:45:55;9.88;;;1.77;;
29774;SDS011;16676;51.202;6.774;2023-12-20T06:49:57;7.05;;;1.52;;
29774;SDS011;16676;51.202;6.774;2023-12-20T06:53:59;7.03;;;1.35;;
29774;SDS011;16676;51.202;6.774;2023-12-20T06:58:04;5.00;;;1.30;;
29774;SDS011;16676;51.202;6.774;2023-12-20T07:02:06;7.00;;;1.73;;
29774;SDS011;16676;51.202;6.774;2023-12-20T07:06:09;6.18;;;1.52;;
29774;SDS011;16676;51.202;6.774;2023-12-20T07:10:11;5.97;;;1.45;;
29774;SDS011;16676;51.202;6.774;2023-12-20T07:14:14;6.60;;;1.40;;
29774;SDS011;16676;51.202;6.774;2023-12-20T07:18:16;6.68;;;2.00;;
29774;SDS011;16676;51.202;6.774;2023-12-20T07:22:18;6.80;;;1.40;;
29774;SDS011;16676;51.202;6.774;2023-12-20T07:26:20;7.25;;;1.45;;
29774;SDS011;16676;51.202;6.774;2023-12-20T07:30:23;11.30;;;1.73;;
29774;SDS011;16676;51.202;6.774;2023-12-20T07:34:25;4.88;;;1.55;;
29774;SDS011;16676;51.202;6.774;2023-12-20T07:38:27;6.68;;;1.45;;
29774;SDS011;16676;51.202;6.774;2023-12-20T07:42:29;5.72;;;1.52;;
29774;SDS011;16676;51.202;6.774;2023-12-20T07:46:32;4.35;;;1.30;;
29774;SDS011;16676;51.202;6.774;2023-12-20T07:50:34;5.30;;;1.50;;
29774;SDS011;16676;51.202;6.774;2023-12-20T07:54:36;5.35;;;1.30;;
29774;SDS011;16676;51.202;6.774;2023-12-20T07:58:38;5.72;;;1.50;;
29774;SDS011;16676;51.202;6.774;2023-12-20T08:02:41;4.60;;;1.40;;
29774;SDS011;16676;51.202;6.774;2023-12-20T08:06:43;4.53;;;1.50;;
29774;SDS011;16676;51.202;6.774;2023-12-20T08:10:45;5.80;;;1.65;;
29774;SDS011;16676;51.202;6.774;2023-12-20T08:14:47;5.68;;;1.33;;
29774;SDS011;16676;51.202;6.774;2023-12-20T08:18:50;4.22;;;1.15;;
29774;SDS011;16676;51.202;6.774;2023-12-20T08:22:52;3.92;;;1.10;;
29774;SDS011;16676;51.202;6.774;2023-12-20T08:26:54;4.75;;;1.13;;
29774;SDS011;16676;51.202;6.774;2023-12-20T08:30:56;5.38;;;1.42;;
29774;SDS011;16676;51.202;6.774;2023-12-20T08:34:59;4.93;;;1.40;;
29774;SDS011;16676;51.202;6.774;2023-12-20T08:39:01;3.33;;;1.20;;
29774;SDS011;16676;51.202;6.774;2023-12-20T08:43:06;5.13;;;1.55;;
29774;SDS011;16676;51.202;6.774;2023-12-20T08:47:08;5.43;;;1.40;;
29774;SDS011;16676;51.202;6.774;2023-12-20T08:51:14;4.68;;;1.23;;
29774;SDS011;16676;51.202;6.774;2023-12-20T08:55:16;3.70;;;1.15;;
29774;SDS011;16676;51.202;6.774;2023-12-20T08:59:19;4.85;;;1.30;;
29774;SDS011;16676;51.202;6.774;2023-12-20T09:03:21;4.88;;;1.08;;
29774;SDS011;16676;51.202;6.774;2023-12-20T09:07:24;2.00;;;0.85;;
29774;SDS011;16676;51.202;6.774;2023-12-20T09:11:27;5.22;;;1.45;;
29774;SDS011;16676;51.202;6.774;2023-12-20T09:15:29;3.00;;;1.10;;
29774;SDS011;16676;51.202;6.774;2023-12-20T09:19:31;4.10;;;1.33;;
29774;SDS011;16676;51.202;6.774;2023-12-20T09:23:35;4.20;;;1.10;;
29774;SDS011;16676;51.202;6.774;2023-12-20T09:27:37;3.90;;;1.20;;
29774;SDS011;16676;51.202;6.774;2023-12-20T09:31:39;4.05;;;1.00;;
29774;SDS011;16676;51.202;6.774;2023-12-20T09:35:41;4.53;;;1.00;;
29774;SDS011;16676;51.202;6.774;2023-12-20T09:39:45;2.55;;;1.10;;
29774;SDS011;16676;51.202;6.774;2023-12-20T09:43:47;3.80;;;1.23;;
29774;SDS011;16676;51.202;6.774;2023-12-20T09:47:51;4.05;;;1.10;;
29774;SDS011;16676;51.202;6.774;2023-12-20T09:51:54;5.13;;;1.17;;
29774;SDS011;16676;51.202;6.774;2023-12-20T09:55:59;1.67;;;0.82;;
29774;SDS011;16676;51.202;6.774;2023-12-20T10:00:01;4.95;;;1.08;;
29774;SDS011;16676;51.202;6.774;2023-12-20T10:04:04;2.92;;;1.20;;
29774;SDS011;16676;51.202;6.774;2023-12-20T10:08:09;3.20;;;1.15;;
29774;SDS011;16676;51.202;6.774;2023-12-20T10:12:12;3.67;;;1.00;;
29774;SDS011;16676;51.202;6.774;2023-12-20T10:16:14;2.38;;;0.95;;
29774;SDS011;16676;51.202;6.774;2023-12-20T10:20:16;2.83;;;1.27;;
29774;SDS011;16676;51.202;6.774;2023-12-20T10:24:18;3.42;;;1.08;;
29774;SDS011;16676;51.202;6.774;2023-12-20T10:28:21;3.20;;;0.90;;
29774;SDS011;16676;51.202;6.774;2023-12-20T10:32:27;2.65;;;1.00;;
29774;SDS011;16676;51.202;6.774;2023-12-20T10:36:30;2.35;;;1.13;;
29774;SDS011;16676;51.202;6.774;2023-12-20T10:40:34;2.38;;;0.88;;
29774;SDS011;16676;51.202;6.774;2023-12-20T10:44:39;2.75;;;0.85;;
29774;SDS011;16676;51.202;6.774;2023-12-20T10:48:41;2.70;;;0.90;;
29774;SDS011;16676;51.202;6.774;2023-12-20T10:52:44;3.33;;;0.88;;
29774;SDS011;16676;51.202;6.774;2023-12-20T10:56:48;3.70;;;1.25;;
29774;SDS011;16676;51.202;6.774;2023-12-20T11:00:56;3.90;;;1.00;;
29774;SDS011;16676;51.202;6.774;2023-12-20T11:05:05;3.42;;;0.90;;
29774;SDS011;16676;51.202;6.774;2023-12-20T11:09:13;2.20;;;0.82;;
29774;SDS011;16676;51.202;6.774;2023-12-20T11:13:22;3.25;;;1.02;;
29774;SDS011;16676;51.202;6.774;2023-12-20T11:17:29;2.67;;;0.90;;
29774;SDS011;16676;51.202;6.774;2023-12-20T11:21:32;1.70;;;0.77;;
29774;SDS011;16676;51.202;6.774;2023-12-20T11:25:45;2.13;;;0.90;;
29774;SDS011;16676;51.202;6.774;2023-12-20T11:29:50;3.17;;;0.80;;
29774;SDS011;16676;51.202;6.774;2023-12-20T11:33:54;3.67;;;1.20;;
29774;SDS011;16676;51.202;6.774;2023-12-20T11:38:14;2.67;;;1.02;;
29774;SDS011;16676;51.202;6.774;2023-12-20T11:42:16;4.03;;;1.20;;
29774;SDS011;16676;51.202;6.774;2023-12-20T11:46:18;2.15;;;0.60;;
29774;SDS011;16676;51.202;6.774;2023-12-20T11:50:22;3.63;;;0.98;;
29774;SDS011;16676;51.202;6.774;2023-12-20T11:54:25;3.38;;;1.02;;
29774;SDS011;16676;51.202;6.774;2023-12-20T11:58:27;2.72;;;1.20;;
29774;SDS011;16676;51.202;6.774;2023-12-20T12:02:29;3.75;;;1.20;;
29774;SDS011;16676;51.202;6.774;2023-12-20T12:06:33;2.85;;;0.90;;
29774;SDS011;16676;51.202;6.774;2023-12-20T12:10:35;1.70;;;0.88;;
29774;SDS011;16676;51.202;6.774;2023-12-20T12:14:37;2.75;;;0.80;;
29774;SDS011;16676;51.202;6.774;2023-12-20T12:18:40;2.53;;;1.02;;
29774;SDS011;16676;51.202;6.774;2023-12-20T12:22:44;3.40;;;0.95;;
29774;SDS011;16676;51.202;6.774;2023-12-20T12:26:49;4.07;;;1.00;;
29774;SDS011;16676;51.202;6.774;2023-12-20T12:30:56;3.10;;;1.20;;
29774;SDS011;16676;51.202;6.774;2023-12-20T12:34:58;2.13;;;0.88;;
29774;SDS011;16676;51.202;6.774;2023-12-20T12:39:03;4.05;;;1.10;;
29774;SDS011;16676;51.202;6.774;2023-12-20T12:43:06;2.95;;;1.23;;
29774;SDS011;16676;51.202;6.774;2023-12-20T12:47:08;2.72;;;1.00;;
29774;SDS011;16676;51.202;6.774;2023-12-20T12:51:10;2.42;;;1.08;;
29774;SDS011;16676;51.202;6.774;2023-12-20T12:55:15;1.90;;;0.93;;
29774;SDS011;16676;51.202;6.774;2023-12-20T12:59:17;3.63;;;1.00;;
29774;SDS011;16676;51.202;6.774;2023-12-20T13:03:18;3.33;;;0.80;;
29774;SDS011;16676;51.202;6.774;2023-12-20T13:07:20;3.63;;;1.10;;
29774;SDS011;16676;51.202;6.774;2023-12-20T13:11:23;3.58;;;1.10;;
29774;SDS011;16676;51.202;6.774;2023-12-20T13:15:25;2.15;;;0.88;;
29774;SDS011;16676;51.202;6.774;2023-12-20T13:19:27;2.70;;;1.40;;
29774;SDS011;16676;51.202;6.774;2023-12-20T13:23:30;3.28;;;1.10;;
29774;SDS011;16676;51.202;6.774;2023-12-20T13:27:33;2.20;;;0.85;;
29774;SDS011;16676;51.202;6.774;2023-12-20T13:31:35;3.15;;;1.13;;
29774;SDS011;16676;51.202;6.774;2023-12-20T13:35:37;3.15;;;0.95;;
29774;SDS011;16676;51.202;6.774;2023-12-20T13:39:39;3.90;;;1.05;;
29774;SDS011;16676;51.202;6.774;2023-12-20T13:43:43;3.22;;;1.35;;
29774;SDS011;16676;51.202;6.774;2023-12-20T13:47:45;2.88;;;1.08;;
29774;SDS011;16676;51.202;6.774;2023-12-20T13:51:47;4.50;;;1.10;;
29774;SDS011;16676;51.202;6.774;2023-12-20T13:55:49;2.47;;;0.80;;
29774;SDS011;16676;51.202;6.774;2023-12-20T13:59:53;3.10;;;1.10;;
29774;SDS011;16676;51.202;6.774;2023-12-20T14:03:57;3.78;;;0.70;;
29774;SDS011;16676;51.202;6.774;2023-12-20T14:08:01;2.70;;;1.05;;
29774;SDS011;16676;51.202;6.774;2023-12-20T14:12:03;2.03;;;0.90;;
29774;SDS011;16676;51.202;6.774;2023-12-20T14:16:07;4.68;;;1.05;;
29774;SDS011;16676;51.202;6.774;2023-12-20T14:20:11;2.20;;;0.65;;
29774;SDS011;16676;51.202;6.774;2023-12-20T14:24:13;2.88;;;0.85;;
29774;SDS011;16676;51.202;6.774;2023-12-20T14:28:15;3.92;;;1.20;;
29774;SDS011;16676;51.202;6.774;2023-12-20T14:32:19;2.75;;;0.77;;
29774;SDS011;16676;51.202;6.774;2023-12-20T14:36:21;4.32;;;1.20;;
29774;SDS011;16676;51.202;6.774;2023-12-20T14:40:23;3.50;;;1.55;;
29774;SDS011;16676;51.202;6.774;2023-12-20T14:44:25;3.40;;;1.05;;
29774;SDS011;16676;51.202;6.774;2023-12-20T14:48:29;3.33;;;0.93;;
29774;SDS011;16676;51.202;6.774;2023-12-20T14:52:31;2.80;;;1.02;;
29774;SDS011;16676;51.202;6.774;2023-12-20T14:56:34;2.25;;;0.88;;
29774;SDS011;16676;51.202;6.774;2023-12-20T15:00:36;2.38;;;0.88;;
29774;SDS011;16676;51.202;6.774;2023-12-20T15:04:39;2.67;;;1.00;;
29774;SDS011;16676;51.202;6.774;2023-12-20T15:08:41;3.00;;;0.90;;
29774;SDS011;16676;51.202;6.774;2023-12-20T15:12:43;3.00;;;0.80;;
29774;SDS011;16676;51.202;6.774;2023-12-20T15:16:46;1.73;;;0.73;;
29774;SDS011;16676;51.202;6.774;2023-12-20T15:20:49;2.50;;;0.95;;
29774;SDS011;16676;51.202;6.774;2023-12-20T15:24:51;2.92;;;1.00;;
29774;SDS011;16676;51.202;6.774;2023-12-20T15:28:55;2.42;;;1.00;;
29774;SDS011;16676;51.202;6.774;2023-12-20T15:32:57;2.47;;;0.95;;
29774;SDS011;16676;51.202;6.774;2023-12-20T15:37:00;2.20;;;1.00;;
29774;SDS011;16676;51.202;6.774;2023-12-20T15:41:02;2.80;;;1.00;;
29774;SDS011;16676;51.202;6.774;2023-12-20T15:45:05;2.08;;;0.80;;
29774;SDS011;16676;51.202;6.774;2023-12-20T15:49:08;2.50;;;1.05;;
29774;SDS011;16676;51.202;6.774;2023-12-20T15:53:12;3.33;;;0.98;;
29774;SDS011;16676;51.202;6.774;2023-12-20T15:57:14;2.30;;;0.88;;
29774;SDS011;16676;51.202;6.774;2023-12-20T16:01:16;3.92;;;1.10;;
29774;SDS011;16676;51.202;6.774;2023-12-20T16:05:18;2.38;;;0.80;;
29774;SDS011;16676;51.202;6.774;2023-12-20T16:09:22;2.40;;;0.80;;
29774;SDS011;16676;51.202;6.774;2023-12-20T16:13:24;1.95;;;0.73;;
29774;SDS011;16676;51.202;6.774;2023-12-20T16:17:25;2.03;;;0.77;;
29774;SDS011;16676;51.202;6.774;2023-12-20T16:21:27;2.58;;;0.88;;
29774;SDS011;16676;51.202;6.774;2023-12-20T16:25:31;1.95;;;0.80;;
29774;SDS011;16676;51.202;6.774;2023-12-20T16:29:33;12.82;;;3.45;;
29774;SDS011;16676;51.202;6.774;2023-12-20T16:33:35;18.00;;;3.38;;
29774;SDS011;16676;51.202;6.774;2023-12-20T16:37:36;15.02;;;3.40;;
29774;SDS011;16676;51.202;6.774;2023-12-20T16:41:40;9.27;;;2.88;;
29774;SDS011;16676;51.202;6.774;2023-12-20T16:45:42;11.05;;;2.88;;
29774;SDS011;16676;51.202;6.774;2023-12-20T16:49:44;10.75;;;2.83;;
29774;SDS011;16676;51.202;6.774;2023-12-20T16:53:46;13.52;;;3.00;;
29774;SDS011;16676;51.202;6.774;2023-12-20T16:57:49;8.45;;;2.45;;
29774;SDS011;16676;51.202;6.774;2023-12-20T17:01:51;9.18;;;2.35;;
29774;SDS011;16676;51.202;6.774;2023-12-20T17:05:54;9.35;;;2.45;;
29774;SDS011;16676;51.202;6.774;2023-12-20T17:09:56;7.00;;;2.10;;
29774;SDS011;16676;51.202;6.774;2023-12-20T17:13:59;8.32;;;2.40;;
29774;SDS011;16676;51.202;6.774;2023-12-20T17:18:01;7.63;;;1.73;;
29774;SDS011;16676;51.202;6.774;2023-12-20T17:22:06;8.35;;;2.22;;
29774;SDS011;16676;51.202;6.774;2023-12-20T17:26:08;7.13;;;1.80;;
29774;SDS011;16676;51.202;6.774;2023-12-20T17:30:12;7.68;;;2.15;;
29774;SDS011;16676;51.202;6.774;2023-12-20T17:34:14;7.03;;;2.38;;
29774;SDS011;16676;51.202;6.774;2023-12-20T17:38:16;6.90;;;2.00;;
29774;SDS011;16676;51.202;6.774;2023-12-20T17:42:18;6.68;;;2.20;;
29774;SDS011;16676;51.202;6.774;2023-12-20T17:46:22;6.70;;;1.55;;
29774;SDS011;16676;51.202;6.774;2023-12-20T17:50:24;8.77;;;1.98;;
29774;SDS011;16676;51.202;6.774;2023-12-20T17:54:25;5.90;;;2.13;;
29774;SDS011;16676;51.202;6.774;2023-12-20T17:58:29;4.68;;;1.90;;
29774;SDS011;16676;51.202;6.774;2023-12-20T18:02:32;6.22;;;1.90;;
29774;SDS011;16676;51.202;6.774;2023-12-20T18:06:34;6.20;;;2.05;;
29774;SDS011;16676;51.202;6.774;2023-12-20T18:10:36;5.85;;;1.73;;
29774;SDS011;16676;51.202;6.774;2023-12-20T18:14:38;6.55;;;1.75;;
29774;SDS011;16676;51.202;6.774;2023-12-20T18:18:41;8.35;;;1.98;;
29774;SDS011;16676;51.202;6.774;2023-12-20T18:22:43;3.53;;;1.77;;
29774;SDS011;16676;51.202;6.774;2023-12-20T18:26:45;4.63;;;2.05;;
29774;SDS011;16676;51.202;6.774;2023-12-20T18:30:47;5.85;;;1.70;;
29774;SDS011;16676;51.202;6.774;2023-12-20T18:34:51;5.28;;;1.95;;
29774;SDS011;16676;51.202;6.774;2023-12-20T18:38:53;5.25;;;1.52;;
29774;SDS011;16676;51.202;6.774;2023-12-20T18:42:55;6.38;;;1.98;;
29774;SDS011;16676;51.202;6.774;2023-12-20T18:46:58;4.57;;;1.80;;
29774;SDS011;16676;51.202;6.774;2023-12-20T18:51:01;4.03;;;1.50;;
29774;SDS011;16676;51.202;6.774;2023-12-20T18:55:04;5.40;;;1.85;;
29774;SDS011;16676;51.202;6.774;2023-12-20T18:59:06;5.97;;;2.00;;
29774;SDS011;16676;51.202;6.774;2023-12-20T19:03:09;8.68;;;2.70;;
29774;SDS011;16676;51.202;6.774;2023-12-20T19:07:12;6.00;;;1.73;;
29774;SDS011;16676;51.202;6.774;2023-12-20T19:11:14;5.15;;;2.40;;
29774;SDS011;16676;51.202;6.774;2023-12-20T19:15:16;7.90;;;2.42;;
29774;SDS011;16676;51.202;6.774;2023-12-20T19:19:19;7.70;;;2.33;;
29774;SDS011;16676;51.202;6.774;2023-12-20T19:23:22;9.40;;;2.30;;
29774;SDS011;16676;51.202;6.774;2023-12-20T19:27:24;5.03;;;1.95;;
29774;SDS011;16676;51.202;6.774;2023-12-20T19:31:26;6.22;;;2.15;;
29774;SDS011;16676;51.202;6.774;2023-12-20T19:35:28;7.60;;;2.30;;
29774;SDS011;16676;51.202;6.774;2023-12-20T19:39:32;5.97;;;2.22;;
29774;SDS011;16676;51.202;6.774;2023-12-20T19:43:35;5.20;;;2.03;;
29774;SDS011;16676;51.202;6.774;2023-12-20T19:47:37;8.48;;;2.40;;
29774;SDS011;16676;51.202;6.774;2023-12-20T19:51:39;7.55;;;2.15;;
29774;SDS011;16676;51.202;6.774;2023-12-20T19:55:42;5.65;;;2.10;;
29774;SDS011;16676;51.202;6.774;2023-12-20T19:59:44;6.03;;;1.90;;
29774;SDS011;16676;51.202;6.774;2023-12-20T20:03:46;4.00;;;1.70;;
29774;SDS011;16676;51.202;6.774;2023-12-20T20:07:48;5.07;;;1.88;;
29774;SDS011;16676;51.202;6.774;2023-12-20T20:11:51;5.75;;;1.92;;
29774;SDS011;16676;51.202;6.774;2023-12-20T20:15:53;5.63;;;1.88;;
29774;SDS011;16676;51.202;6.774;2023-12-20T20:19:55;9.93;;;2.70;;
29774;SDS011;16676;51.202;6.774;2023-12-20T20:23:59;7.25;;;2.10;;
29774;SDS011;16676;51.202;6.774;2023-12-20T20:28:03;6.10;;;1.92;;
29774;SDS011;16676;51.202;6.774;2023-12-20T20:32:05;5.38;;;2.00;;
29774;SDS011;16676;51.202;6.774;2023-12-20T20:36:07;5.13;;;1.88;;
29774;SDS011;16676;51.202;6.774;2023-12-20T20:40:10;5.47;;;2.03;;
29774;SDS011;16676;51.202;6.774;2023-12-20T20:44:15;7.00;;;2.10;;
29774;SDS011;16676;51.202;6.774;2023-12-20T20:48:17;7.90;;;1.65;;
29774;SDS011;16676;51.202;6.774;2023-12-20T20:52:19;6.55;;;1.90;;
29774;SDS011;16676;51.202;6.774;2023-12-20T20:56:21;13.02;;;2.13;;
29774;SDS011;16676;51.202;6.774;2023-12-20T21:00:24;5.72;;;1.73;;
29774;SDS011;16676;51.202;6.774;2023-12-20T21:04:26;9.20;;;2.40;;
29774;SDS011;16676;51.202;6.774;2023-12-20T21:08:28;4.00;;;1.70;;
29774;SDS011;16676;51.202;6.774;2023-12-20T21:12:30;5.85;;;1.85;;
29774;SDS011;16676;51.202;6.774;2023-12-20T21:16:33;6.05;;;1.70;;
29774;SDS011;16676;51.202;6.774;2023-12-20T21:20:36;5.95;;;1.98;;
29774;SDS011;16676;51.202;6.774;2023-12-20T21:24:38;4.60;;;1.65;;
29774;SDS011;16676;51.202;6.774;2023-12-20T21:28:40;4.28;;;1.83;;
29774;SDS011;16676;51.202;6.774;2023-12-20T21:32:43;5.80;;;1.88;;
29774;SDS011;16676;51.202;6.774;2023-12-20T21:36:45;4.75;;;1.58;;
29774;SDS011;16676;51.202;6.774;2023-12-20T21:40:47;5.95;;;1.75;;
29774;SDS011;16676;51.202;6.774;2023-12-20T21:44:50;6.68;;;2.17;;
29774;SDS011;16676;51.202;6.774;2023-12-20T21:48:53;5.10;;;1.80;;
29774;SDS011;16676;51.202;6.774;2023-12-20T21:52:55;6.55;;;2.03;;
29774;SDS011;16676;51.202;6.774;2023-12-20T21:56:57;3.72;;;1.70;;
29774;SDS011;16676;51.202;6.774;2023-12-20T22:00:59;6.65;;;1.88;;
29774;SDS011;16676;51.202;6.774;2023-12-20T22:05:03;5.70;;;1.60;;
29774;SDS011;16676;51.202;6.774;2023-12-20T22:09:05;7.90;;;1.80;;
29774;SDS011;16676;51.202;6.774;2023-12-20T22:13:08;5.65;;;1.67;;
29774;SDS011;16676;51.202;6.774;2023-12-20T22:17:10;6.60;;;2.33;;
29774;SDS011;16676;51.202;6.774;2023-12-20T22:21:13;7.60;;;2.10;;
29774;SDS011;16676;51.202;6.774;2023-12-20T22:25:15;5.88;;;1.63;;
29774;SDS011;16676;51.202;6.774;2023-12-20T22:29:17;3.80;;;1.33;;
29774;SDS011;16676;51.202;6.774;2023-12-20T22:33:19;4.00;;;1.45;;
29774;SDS011;16676;51.202;6.774;2023-12-20T22:37:23;4.13;;;1.40;;
29774;SDS011;16676;51.202;6.774;2023-12-20T22:41:24;6.20;;;1.80;;
29774;SDS011;16676;51.202;6.774;2023-12-20T22:45:26;4.07;;;1.60;;
29774;SDS011;16676;51.202;6.774;2023-12-20T22:49:28;6.20;;;1.80;;
29774;SDS011;16676;51.202;6.774;2023-12-20T22:53:31;5.18;;;1.58;;
29774;SDS011;16676;51.202;6.774;2023-12-20T22:57:33;3.50;;;1.40;;
29774;SDS011;16676;51.202;6.774;2023-12-20T23:01:35;4.32;;;1.40;;
29774;SDS011;16676;51.202;6.774;2023-12-20T23:05:37;2.90;;;1.30;;
29774;SDS011;16676;51.202;6.774;2023-12-20T23:09:40;5.25;;;1.90;;
29774;SDS011;16676;51.202;6.774;2023-12-20T23:13:42;4.32;;;1.75;;
29774;SDS011;16676;51.202;6.774;2023-12-20T23:17:44;3.85;;;1.40;;
29774;SDS011;16676;51.202;6.774;2023-12-20T23:21:46;3.10;;;1.38;;
29774;SDS011;16676;51.202;6.774;2023-12-20T23:25:51;4.10;;;1.50;;
29774;SDS011;16676;51.202;6.774;2023-12-20T23:29:53;5.20;;;1.75;;
29774;SDS011;16676;51.202;6.774;2023-12-20T23:33:56;4.63;;;1.33;;
29774;SDS011;16676;51.202;6.774;2023-12-20T23:37:58;4.00;;;1.13;;
29774;SDS011;16676;51.202;6.774;2023-12-20T23:42:01;1.85;;;0.98;;
29774;SDS011;16676;51.202;6.774;2023-12-20T23:46:03;3.47;;;1.20;;
29774;SDS011;16676;51.202;6.774;2023-12-20T23:50:05;3.40;;;1.40;;
29774;SDS011;16676;51.202;6.774;2023-12-20T23:54:07;4.03;;;1.17;;
29774;SDS011;16676;51.202;6.774;2023-12-20T23:58:11;3.20;;;1.33;;
